Time;durP1;ratioP1;P1;durP2;ratioP2;P2;SDS_P1;SDS_P2;PMS_P1;PMS_P2;Temp;Humidity;BMP_temperature;BMP_pressure;BME280_temperature;BME280_humidity;BME280_pressure;Samples;Min_cycle;Max_cycle;Signal;HPM_P1;HPM_P2
2022/03/23 00:00:51;;;;;;;34.83;18.90;;;3.90;99.90;;;;;;6241155;28;20275;-74
2022/03/23 00:03:59;;;;;;;35.83;18.60;;;3.90;99.90;;;;;;6240663;28;20293;-74
2022/03/23 00:07:04;;;;;;;36.60;19.17;;;3.90;99.90;;;;;;6241200;28;20560;-74
2022/03/23 00:10:11;;;;;;;32.93;19.20;;;3.90;99.90;;;;;;6240416;28;20308;-74
2022/03/23 00:13:21;;;;;;;33.87;18.73;;;3.90;99.90;;;;;;6240629;28;20294;-74
2022/03/23 00:16:26;;;;;;;35.07;18.67;;;3.80;99.90;;;;;;6241097;28;20276;-73
2022/03/23 00:19:33;;;;;;;34.07;18.70;;;3.80;99.90;;;;;;6240562;28;20300;-74
2022/03/23 00:22:39;;;;;;;32.03;17.63;;;3.80;99.90;;;;;;6240564;28;20273;-75
2022/03/23 00:25:44;;;;;;;32.50;17.30;;;3.70;99.90;;;;;;6240774;28;20272;-75
2022/03/23 00:28:49;;;;;;;34.73;17.90;;;3.70;99.90;;;;;;6240183;28;20302;-73
2022/03/23 00:31:55;;;;;;;31.87;17.00;;;3.70;99.90;;;;;;6255872;28;20275;-74
2022/03/23 00:35:02;;;;;;;32.57;17.70;;;3.70;99.90;;;;;;6240282;28;20299;-74
2022/03/23 00:38:07;;;;;;;33.03;17.20;;;3.70;99.90;;;;;;6240197;28;20303;-74
2022/03/23 00:41:15;;;;;;;32.40;17.10;;;3.70;99.90;;;;;;6239383;28;20279;-74
2022/03/23 00:44:20;;;;;;;29.97;17.47;;;3.70;99.90;;;;;;6240170;28;20299;-74
2022/03/23 00:47:27;;;;;;;32.20;16.97;;;3.60;99.90;;;;;;6239368;28;20275;-75
2022/03/23 00:50:34;;;;;;;34.47;18.03;;;3.70;99.90;;;;;;6255861;28;20536;-74
2022/03/23 00:53:40;;;;;;;31.23;16.67;;;3.70;99.90;;;;;;6239545;28;20303;-75
2022/03/23 00:56:45;;;;;;;29.30;16.33;;;3.60;99.90;;;;;;6239302;28;20272;-74
2022/03/23 00:59:50;;;;;;;38.03;16.97;;;3.70;99.90;;;;;;6238708;28;20601;-75
2022/03/23 01:02:56;;;;;;;29.63;17.13;;;3.60;99.90;;;;;;6239505;28;20291;-74
2022/03/23 01:06:03;;;;;;;30.27;16.47;;;3.60;99.90;;;;;;6239628;28;20456;-74
2022/03/23 01:09:09;;;;;;;35.23;16.03;;;3.60;99.90;;;;;;6238258;28;20307;-74
2022/03/23 01:12:14;;;;;;;31.10;16.07;;;3.60;99.90;;;;;;6239928;28;20273;-74
2022/03/23 01:15:20;;;;;;;27.43;15.37;;;3.50;99.90;;;;;;6238259;28;20299;-74
2022/03/23 01:18:25;;;;;;;28.20;16.83;;;3.50;99.90;;;;;;6239161;28;20304;-74
2022/03/23 01:21:33;;;;;;;29.00;16.23;;;3.50;99.90;;;;;;6239867;28;20555;-74
2022/03/23 01:24:38;;;;;;;26.57;16.00;;;3.50;99.90;;;;;;6237752;28;20300;-74
2022/03/23 01:27:44;;;;;;;32.23;16.20;;;3.40;99.90;;;;;;6238722;28;20275;-74
2022/03/23 01:30:51;;;;;;;26.63;16.27;;;3.40;99.90;;;;;;6239553;28;20276;-74
2022/03/23 01:33:59;;;;;;;28.60;16.40;;;3.40;99.90;;;;;;6253718;28;20303;-75
2022/03/23 01:37:06;;;;;;;31.23;15.63;;;3.40;99.90;;;;;;6238206;28;20279;-75
2022/03/23 01:40:13;;;;;;;26.30;14.77;;;3.40;99.90;;;;;;6253296;28;20483;-74
2022/03/23 01:43:18;;;;;;;26.87;15.10;;;3.40;99.90;;;;;;6238655;28;20334;-75
2022/03/23 01:46:26;;;;;;;29.07;16.87;;;3.30;99.90;;;;;;6238679;28;20280;-74
2022/03/23 01:49:33;;;;;;;26.30;15.70;;;3.30;99.90;;;;;;6237366;28;20303;-75
2022/03/23 01:52:40;;;;;;;30.30;16.60;;;3.30;99.90;;;;;;6253529;28;20280;-75
2022/03/23 01:55:46;;;;;;;29.93;16.20;;;3.20;99.90;;;;;;6237381;28;20275;-74
2022/03/23 01:58:51;;;;;;;26.50;14.97;;;3.20;99.90;;;;;;6236652;28;20302;-74
2022/03/23 02:01:56;;;;;;;31.97;15.23;;;3.20;99.90;;;;;;6237674;28;20280;-75
2022/03/23 02:05:02;;;;;;;29.17;15.67;;;3.10;99.90;;;;;;6253328;28;20593;-75
2022/03/23 02:08:14;;;;;;;26.23;15.20;;;3.10;99.90;;;;;;6238024;28;20611;-75
2022/03/23 02:11:21;;;;;;;28.03;15.23;;;3.10;99.90;;;;;;6236953;28;20485;-74
2022/03/23 02:14:28;;;;;;;28.73;15.60;;;3.00;99.90;;;;;;6236648;28;20302;-74
2022/03/23 02:17:35;;;;;;;29.33;15.93;;;3.00;99.90;;;;;;6253191;28;20276;-75
2022/03/23 02:20:41;;;;;;;24.37;14.80;;;3.00;99.90;;;;;;6253139;28;20297;-74
2022/03/23 02:23:48;;;;;;;25.50;15.50;;;3.00;99.90;;;;;;6236554;28;20312;-74
2022/03/23 02:26:54;;;;;;;26.33;15.23;;;2.90;99.90;;;;;;6238248;28;20319;-74
2022/03/23 02:30:00;;;;;;;24.47;14.47;;;2.90;99.90;;;;;;6237593;28;20308;-75
2022/03/23 02:33:09;;;;;;;26.47;15.10;;;2.90;99.90;;;;;;6237617;28;20601;-74
2022/03/23 02:36:14;;;;;;;27.37;15.83;;;2.80;99.90;;;;;;6237428;28;20270;-74
2022/03/23 02:39:22;;;;;;;25.13;15.27;;;2.80;99.90;;;;;;6237327;28;20484;-74
2022/03/23 02:42:28;;;;;;;28.63;15.23;;;2.80;99.90;;;;;;6237579;28;20275;-75
2022/03/23 02:45:33;;;;;;;25.77;14.87;;;2.70;99.90;;;;;;6237573;28;20451;-74
2022/03/23 02:48:39;;;;;;;28.40;14.97;;;2.70;99.90;;;;;;6237356;28;20298;-75
2022/03/23 02:51:44;;;;;;;25.00;14.47;;;2.70;99.90;;;;;;6237519;28;20278;-74
2022/03/23 03:01:56;;;;;;;28.20;14.80;;;2.70;99.90;;;;;;6237254;28;20294;-75
2022/03/23 03:05:02;;;;;;;26.03;14.53;;;2.60;99.90;;;;;;6237156;28;20294;-75
2022/03/23 03:11:32;;;;;;;18.70;13.03;;;2.60;99.90;;;;;;6237548;28;20269;-74
2022/03/23 03:14:38;;;;;;;22.83;13.70;;;2.60;99.90;;;;;;6237229;28;20294;-74
2022/03/23 03:17:44;;;;;;;24.97;14.37;;;2.60;99.90;;;;;;6236123;28;20376;-75
2022/03/23 03:20:49;;;;;;;24.37;14.07;;;2.60;99.90;;;;;;6237261;28;20293;-74
2022/03/23 03:23:55;;;;;;;23.03;13.30;;;2.50;99.90;;;;;;6236385;28;20575;-75
2022/03/23 03:27:02;;;;;;;22.57;14.20;;;2.50;99.90;;;;;;6237166;28;20542;-74
2022/03/23 03:30:11;;;;;;;21.50;13.77;;;2.50;99.90;;;;;;6236826;28;20299;-74
2022/03/23 03:33:17;;;;;;;21.10;13.67;;;2.50;99.90;;;;;;6236484;28;20300;-75
2022/03/23 03:36:22;;;;;;;25.07;14.00;;;2.40;99.90;;;;;;6237104;28;20570;-75
2022/03/23 03:39:28;;;;;;;19.10;13.17;;;2.40;99.90;;;;;;6236379;28;20474;-74
2022/03/23 03:42:35;;;;;;;18.73;12.73;;;2.40;99.90;;;;;;6236293;28;20567;-75
2022/03/23 03:45:42;;;;;;;19.63;13.33;;;2.30;99.90;;;;;;6237151;28;20277;-74
2022/03/23 03:48:47;;;;;;;20.33;12.40;;;2.30;99.90;;;;;;6236041;28;20474;-74
2022/03/23 03:51:53;;;;;;;19.27;12.63;;;2.40;99.90;;;;;;6237019;28;20283;-75
2022/03/23 03:54:58;;;;;;;21.47;12.97;;;2.30;99.90;;;;;;6236567;28;20611;-74
2022/03/23 03:58:05;;;;;;;20.90;12.70;;;2.30;99.90;;;;;;6236106;28;20295;-74
2022/03/23 04:01:14;;;;;;;21.27;13.00;;;2.30;99.90;;;;;;6236498;28;20296;-75
2022/03/23 04:04:19;;;;;;;19.93;12.43;;;2.30;99.90;;;;;;6234379;28;20294;-74
2022/03/23 04:07:24;;;;;;;21.43;12.00;;;2.30;99.90;;;;;;6236069;28;20295;-74
2022/03/23 04:10:30;;;;;;;17.50;11.73;;;2.20;99.90;;;;;;6237069;28;20292;-75
2022/03/23 04:13:36;;;;;;;18.40;11.57;;;2.20;99.90;;;;;;6236411;28;20302;-74
2022/03/23 04:16:42;;;;;;;22.27;12.07;;;2.20;99.90;;;;;;6236734;28;20273;-74
2022/03/23 04:19:47;;;;;;;20.37;11.67;;;2.20;99.90;;;;;;6236013;28;20304;-74
2022/03/23 04:22:52;;;;;;;15.73;10.97;;;2.20;99.90;;;;;;6235709;28;20301;-74
2022/03/23 04:25:58;;;;;;;14.37;11.00;;;2.20;99.90;;;;;;6236431;28;20272;-75
2022/03/23 04:29:04;;;;;;;15.73;10.63;;;2.20;99.90;;;;;;6236626;28;20305;-74
2022/03/23 04:32:10;;;;;;;19.53;11.00;;;2.10;99.90;;;;;;6240410;28;20276;-74
2022/03/23 04:35:16;;;;;;;19.80;10.60;;;2.20;99.90;;;;;;6241064;28;20289;-74
2022/03/23 04:38:22;;;;;;;15.77;11.20;;;2.10;99.90;;;;;;6240336;28;20603;-74
2022/03/23 04:41:27;;;;;;;16.97;11.43;;;2.10;99.90;;;;;;6240585;28;20297;-74
2022/03/23 04:44:34;;;;;;;17.33;10.70;;;2.10;99.90;;;;;;6240715;28;20292;-74
2022/03/23 04:47:39;;;;;;;17.60;10.87;;;2.10;99.90;;;;;;6240376;28;20292;-74
2022/03/23 04:50:46;;;;;;;17.73;11.00;;;2.10;99.90;;;;;;6240981;28;20565;-74
2022/03/23 04:53:52;;;;;;;15.53;10.20;;;2.10;99.90;;;;;;6240321;28;20303;-74
2022/03/23 04:56:57;;;;;;;15.63;10.57;;;2.10;99.90;;;;;;6240252;28;20274;-75
2022/03/23 05:00:08;;;;;;;18.13;10.67;;;2.10;99.90;;;;;;6240434;28;20296;-74
2022/03/23 05:03:19;;;;;;;12.80;9.70;;;2.10;99.90;;;;;;6239786;28;20303;-74
2022/03/23 05:06:25;;;;;;;18.20;10.23;;;2.10;99.90;;;;;;6240676;28;20276;-74
2022/03/23 05:09:30;;;;;;;16.50;9.97;;;2.10;99.90;;;;;;6239538;28;20302;-74
2022/03/23 05:12:35;;;;;;;13.60;9.87;;;2.10;99.90;;;;;;6239516;28;20303;-74
2022/03/23 05:15:42;;;;;;;15.50;10.43;;;2.10;99.90;;;;;;6239981;28;20457;-74
2022/03/23 05:18:47;;;;;;;16.20;10.13;;;2.10;99.90;;;;;;6239446;28;20613;-74
2022/03/23 05:21:53;;;;;;;16.43;9.80;;;2.10;99.90;;;;;;6240115;28;20292;-74
2022/03/23 05:24:58;;;;;;;13.83;9.53;;;2.10;99.90;;;;;;6239044;28;20277;-74
2022/03/23 05:28:08;;;;;;;13.23;9.33;;;2.10;99.90;;;;;;6239266;28;20294;-74
2022/03/23 05:31:15;;;;;;;16.13;8.87;;;2.10;99.90;;;;;;6240014;28;20274;-74
2022/03/23 05:34:20;;;;;;;12.73;9.33;;;2.20;99.90;;;;;;6239087;28;20296;-75
2022/03/23 05:37:25;;;;;;;14.23;9.13;;;2.20;99.90;;;;;;6239324;28;20583;-75
2022/03/23 05:40:30;;;;;;;12.87;9.43;;;2.20;99.90;;;;;;6239244;28;20552;-74
2022/03/23 05:43:36;;;;;;;13.80;8.90;;;2.20;99.90;;;;;;6239099;28;20302;-74
2022/03/23 05:46:43;;;;;;;11.20;8.67;;;2.30;99.90;;;;;;6239133;28;20552;-74
2022/03/23 05:49:48;;;;;;;13.17;9.00;;;2.30;99.90;;;;;;6238502;28;20615;-74
2022/03/23 05:52:53;;;;;;;14.70;8.77;;;2.40;99.90;;;;;;6238769;28;20303;-74
2022/03/23 05:55:59;;;;;;;14.17;8.63;;;2.40;99.90;;;;;;6239241;28;20276;-75
2022/03/23 05:59:04;;;;;;;12.63;8.90;;;2.40;99.90;;;;;;6238641;28;20573;-74
2022/03/23 06:02:14;;;;;;;12.37;8.40;;;2.40;99.90;;;;;;6238096;28;20294;-74
2022/03/23 06:05:19;;;;;;;15.70;8.60;;;2.50;99.90;;;;;;6239230;28;20425;-74
2022/03/23 06:08:25;;;;;;;10.53;8.00;;;2.50;99.90;;;;;;6238611;28;20303;-74
2022/03/23 06:11:30;;;;;;;10.10;8.27;;;2.50;99.90;;;;;;6189494;28;20271;-74
2022/03/23 06:14:36;;;;;;;10.60;7.60;;;2.60;99.90;;;;;;6189093;28;20301;-74
2022/03/23 06:17:42;;;;;;;9.27;7.77;;;2.60;99.90;;;;;;6189202;28;20478;-76
2022/03/23 06:20:48;;;;;;;9.37;8.27;;;2.60;99.90;;;;;;6190134;28;20276;-75
2022/03/23 06:23:54;;;;;;;12.47;8.07;;;2.70;99.90;;;;;;6189393;28;20307;-74
2022/03/23 06:27:01;;;;;;;10.60;8.47;;;2.70;99.90;;;;;;6189294;28;20277;-74
2022/03/23 06:30:09;;;;;;;11.20;8.13;;;2.80;99.90;;;;;;6188884;28;20278;-74
2022/03/23 06:33:16;;;;;;;14.50;8.00;;;2.80;99.90;;;;;;6188579;28;20302;-74
2022/03/23 06:36:21;;;;;;;11.13;7.67;;;2.80;99.90;;;;;;6189357;28;20280;-74
2022/03/23 06:39:27;;;;;;;13.20;8.13;;;2.90;99.90;;;;;;6188437;28;20320;-74
2022/03/23 06:42:32;;;;;;;11.17;7.37;;;3.00;99.90;;;;;;6188664;28;20568;-75
2022/03/23 06:45:40;;;;;;;16.63;8.37;;;3.00;99.90;;;;;;6189217;28;20278;-74
2022/03/23 06:48:47;;;;;;;12.17;7.50;;;3.00;99.90;;;;;;6188530;28;20304;-74
2022/03/23 06:51:52;;;;;;;9.07;7.13;;;3.10;99.90;;;;;;6188477;28;20276;-75
2022/03/23 06:54:57;;;;;;;13.17;7.60;;;3.30;99.90;;;;;;6187949;28;20289;-74
2022/03/23 06:58:02;;;;;;;13.83;7.57;;;3.30;99.90;;;;;;6188489;28;20301;-74
2022/03/23 07:01:08;;;;;;;13.60;7.67;;;3.40;99.90;;;;;;6189424;28;20281;-74
2022/03/23 07:04:15;;;;;;;14.20;8.20;;;3.50;99.90;;;;;;6188326;28;20312;-73
2022/03/23 07:07:20;;;;;;;7.77;6.73;;;3.60;99.90;;;;;;6188668;28;20294;-74
2022/03/23 07:10:25;;;;;;;10.83;7.43;;;3.60;99.90;;;;;;6221022;28;20299;-74
2022/03/23 07:13:30;;;;;;;9.93;7.37;;;3.60;99.90;;;;;;6236622;28;20303;-75
2022/03/23 07:16:36;;;;;;;11.60;7.17;;;3.70;99.90;;;;;;6236774;28;20275;-74
2022/03/23 07:20:08;;;;;;;9.73;7.20;;;3.80;99.90;;;;;;6359040;27;20964;-75
2022/03/23 07:23:14;;;;;;;11.93;7.63;;;3.80;99.90;;;;;;6310561;27;20301;-75
2022/03/23 07:26:21;;;;;;;10.23;7.20;;;3.80;99.90;;;;;;6283446;28;20272;-74
2022/03/23 07:29:26;;;;;;;9.57;6.97;;;3.90;99.90;;;;;;6303523;28;20309;-75
2022/03/23 07:32:32;;;;;;;8.40;7.10;;;3.90;99.90;;;;;;6307642;28;20300;-75
2022/03/23 07:35:38;;;;;;;11.17;7.30;;;4.00;99.90;;;;;;6307225;28;20273;-75
2022/03/23 07:38:43;;;;;;;11.37;7.20;;;4.00;99.90;;;;;;6307662;28;20320;-75
2022/03/23 07:41:52;;;;;;;18.27;7.30;;;4.10;99.90;;;;;;6307271;28;20272;-75
2022/03/23 07:44:57;;;;;;;14.03;7.13;;;4.20;99.90;;;;;;6306837;28;20274;-75
2022/03/23 07:48:02;;;;;;;11.47;7.27;;;4.30;99.90;;;;;;6306671;28;20292;-76
2022/03/23 07:51:11;;;;;;;9.63;6.57;;;4.30;99.90;;;;;;6307323;28;20468;-76
2022/03/23 07:54:17;;;;;;;8.47;6.63;;;4.30;99.90;;;;;;6306670;28;20303;-77
2022/03/23 07:57:22;;;;;;;8.23;6.93;;;4.40;99.90;;;;;;6306212;28;20291;-75
2022/03/23 08:00:28;;;;;;;12.77;6.83;;;4.40;99.90;;;;;;6307395;28;20273;-74
2022/03/23 08:03:33;;;;;;;10.97;6.60;;;4.50;99.90;;;;;;6306234;28;20295;-76
2022/03/23 08:06:39;;;;;;;10.00;6.43;;;4.50;99.90;;;;;;6307005;28;20458;-75
2022/03/23 08:09:45;;;;;;;9.00;6.23;;;4.60;99.90;;;;;;6306355;28;20300;-76
2022/03/23 08:12:51;;;;;;;15.23;7.47;;;4.60;99.90;;;;;;6306048;28;20289;-75
2022/03/23 08:15:56;;;;;;;7.23;6.53;;;4.60;99.90;;;;;;6306826;28;20272;-75
2022/03/23 08:19:01;;;;;;;10.97;6.57;;;4.60;99.90;;;;;;6306144;28;20300;-75
2022/03/23 08:22:11;;;;;;;9.90;6.40;;;4.70;99.90;;;;;;6306186;28;20421;-75
2022/03/23 08:25:16;;;;;;;7.67;6.70;;;4.80;99.90;;;;;;6306890;28;20293;-75
2022/03/23 08:28:21;;;;;;;9.73;6.40;;;4.80;99.90;;;;;;6306335;28;20295;-75
2022/03/23 08:31:27;;;;;;;9.47;6.40;;;4.80;99.90;;;;;;6289643;28;20277;-75
2022/03/23 08:34:33;;;;;;;8.00;6.47;;;4.90;99.90;;;;;;6289893;28;20297;-75
2022/03/23 08:37:40;;;;;;;10.97;6.90;;;5.00;99.90;;;;;;6290109;28;20296;-75
2022/03/23 08:40:49;;;;;;;9.07;7.03;;;5.10;99.90;;;;;;6290123;28;20584;-75
2022/03/23 08:43:54;;;;;;;11.63;6.57;;;5.10;99.90;;;;;;6289415;28;20302;-75
2022/03/23 08:47:00;;;;;;;11.67;6.40;;;5.10;99.90;;;;;;6289146;28;20268;-74
2022/03/23 08:50:08;;;;;;;19.83;6.50;;;5.20;99.90;;;;;;6289504;28;20515;-74
2022/03/23 08:53:15;;;;;;;12.83;6.20;;;5.20;99.90;;;;;;6289444;28;20317;-74
2022/03/23 08:56:21;;;;;;;11.70;6.03;;;5.20;99.90;;;;;;6290058;28;20300;-74
2022/03/23 08:59:26;;;;;;;8.13;5.90;;;5.20;99.90;;;;;;6289023;28;20294;-74
2022/03/23 09:02:32;;;;;;;9.53;6.70;;;5.30;99.90;;;;;;6288552;28;20376;-75
2022/03/23 09:05:37;;;;;;;8.10;6.50;;;5.30;99.90;;;;;;6289347;28;20269;-75
2022/03/23 09:08:44;;;;;;;9.97;5.97;;;5.30;99.90;;;;;;6288882;28;20301;-74
2022/03/23 09:11:49;;;;;;;6.83;6.23;;;5.40;99.90;;;;;;6289567;28;20269;-74
2022/03/23 09:14:54;;;;;;;6.57;5.80;;;5.50;99.90;;;;;;6288334;28;20306;-74
2022/03/23 09:18:04;;;;;;;14.00;6.33;;;5.50;99.90;;;;;;6278995;28;20301;-74
2022/03/23 09:21:13;;;;;;;7.30;6.00;;;5.50;99.90;;;;;;6264125;28;20474;-75
2022/03/23 09:24:20;;;;;;;11.47;6.00;;;5.60;99.90;;;;;;6263486;28;20298;-75
2022/03/23 09:27:26;;;;;;;9.37;5.90;;;5.60;99.90;;;;;;6263107;28;20437;-75
2022/03/23 09:30:31;;;;;;;11.93;6.50;;;5.70;99.90;;;;;;6263290;28;20284;-75
2022/03/23 09:33:36;;;;;;;12.03;5.90;;;5.80;99.90;;;;;;6263047;28;20293;-74
2022/03/23 09:40:07;;;;;;;8.77;6.03;;;5.80;99.90;;;;;;6276324;28;20406;-74
2022/03/23 09:43:20;;;;;;;12.03;6.43;;;5.90;99.90;;;;;;6276132;28;20302;-75
2022/03/23 09:46:26;;;;;;;9.43;6.17;;;6.00;99.90;;;;;;6295104;28;20275;-75
2022/03/23 09:49:32;;;;;;;13.20;5.97;;;6.00;99.90;;;;;;6284380;28;20302;-74
2022/03/23 09:52:37;;;;;;;12.63;6.40;;;6.10;99.90;;;;;;6282021;28;20314;-75
2022/03/23 09:55:44;;;;;;;6.60;5.70;;;6.20;99.90;;;;;;6263096;28;20274;-74
2022/03/23 09:58:50;;;;;;;6.53;5.47;;;6.20;99.90;;;;;;6262585;28;20585;-75
2022/03/23 10:03:01;;;;;;;15.00;6.10;;;6.20;99.90;;;;;;6262925;28;20293;-75
2022/03/23 10:06:56;;;;;;;8.77;5.87;;;6.30;99.90;;;;;;6211352;28;20435;-75
2022/03/23 10:10:53;;;;;;;10.40;6.47;;;6.50;99.90;;;;;;6261983;28;20283;-75
2022/03/23 10:15:00;;;;;;;8.40;5.70;;;6.50;99.90;;;;;;6262192;28;20306;-74
2022/03/23 10:18:52;;;;;;;8.30;5.93;;;6.50;99.90;;;;;;6262266;28;20306;-74
2022/03/23 10:22:10;;;;;;;6.87;5.70;;;6.70;99.90;;;;;;6261398;28;20310;-76
2022/03/23 10:25:17;;;;;;;8.17;5.60;;;6.80;99.90;;;;;;6262230;28;20440;-75
2022/03/23 10:28:22;;;;;;;13.97;6.03;;;6.80;99.90;;;;;;6261627;28;20296;-75
2022/03/23 10:31:29;;;;;;;13.70;5.73;;;6.80;99.90;;;;;;6261692;28;20465;-75
2022/03/23 10:34:48;;;;;;;6.97;5.17;;;6.80;99.90;;;;;;6262006;28;20299;-75
2022/03/23 10:37:53;;;;;;;8.33;5.37;;;7.00;99.90;;;;;;6261432;28;20299;-75
2022/03/23 10:40:58;;;;;;;5.37;4.90;;;7.00;99.90;;;;;;6261705;28;20291;-74
2022/03/23 10:44:04;;;;;;;9.60;5.17;;;7.00;99.80;;;;;;6260158;28;20315;-74
2022/03/23 10:47:21;;;;;;;8.20;5.30;;;7.10;99.80;;;;;;6261063;28;20279;-74
2022/03/23 10:50:28;;;;;;;12.17;5.30;;;7.10;99.50;;;;;;6261420;28;20390;-74
2022/03/23 10:53:38;;;;;;;10.07;5.27;;;7.20;98.90;;;;;;6261001;28;20303;-74
2022/03/23 10:56:43;;;;;;;9.60;5.07;;;7.30;98.40;;;;;;6261933;28;20434;-74
2022/03/23 10:59:49;;;;;;;6.57;4.63;;;7.30;98.20;;;;;;6261267;28;20300;-74
2022/03/23 11:02:54;;;;;;;6.70;5.05;;;7.30;98.30;;;;;;6260555;28;20575;-74
2022/03/23 11:06:01;;;;;;;9.83;5.30;;;7.40;97.80;;;;;;6261530;28;20274;-74
2022/03/23 11:15:46;;;;;;;15.57;5.13;;;7.40;97.70;;;;;;6261180;28;20586;-75
2022/03/23 11:16:04;;;;;;;12.48;5.25;;;7.50;97.10;;;;;;6261523;28;20313;-75
2022/03/23 11:19:18;;;;;;;6.03;4.65;;;7.70;96.00;;;;;;6261188;28;20304;-75
2022/03/23 11:22:33;;;;;;;8.15;4.55;;;7.70;95.90;;;;;;6260022;28;20311;-75
2022/03/23 11:25:38;;;;;;;5.97;4.78;;;7.80;95.10;;;;;;6261270;28;20272;-74
2022/03/23 11:28:45;;;;;;;5.15;4.40;;;7.90;94.70;;;;;;6260351;28;20303;-73
2022/03/23 11:31:52;;;;;;;5.87;4.60;;;8.00;94.60;;;;;;6260832;28;20280;-76
2022/03/23 11:34:58;;;;;;;8.73;4.50;;;8.20;91.90;;;;;;6285163;28;20280;-76
2022/03/23 11:38:06;;;;;;;8.43;4.38;;;8.40;90.60;;;;;;6284823;28;20298;-73
2022/03/23 11:41:14;;;;;;;4.57;4.25;;;8.30;90.40;;;;;;6285720;28;20291;-74
2022/03/23 11:44:21;;;;;;;9.35;4.18;;;8.50;88.90;;;;;;6285197;28;20303;-74
2022/03/23 11:47:35;;;;;;;5.43;3.90;;;8.40;87.80;;;;;;6284999;28;20290;-74
2022/03/23 11:50:58;;;;;;;5.47;4.13;;;8.40;89.50;;;;;;6285196;28;20464;-75
2022/03/23 11:54:12;;;;;;;5.80;4.20;;;8.50;87.10;;;;;;6285015;28;20295;-74
2022/03/23 11:57:17;;;;;;;7.70;4.55;;;8.40;86.00;;;;;;6284873;28;20303;-74
2022/03/23 12:00:24;;;;;;;4.20;3.88;;;8.50;87.70;;;;;;6285493;28;20271;-74
2022/03/23 12:03:56;;;;;;;4.63;4.03;;;8.60;83.80;;;;;;6285135;28;20296;-74
2022/03/23 12:07:05;;;;;;;7.03;4.05;;;8.60;81.90;;;;;;6289390;28;20267;-74
2022/03/23 12:10:21;;;;;;;9.40;4.00;;;8.70;77.20;;;;;;6290058;28;20589;-74
2022/03/23 12:13:26;;;;;;;13.35;3.85;;;8.80;77.10;;;;;;6289829;28;20311;-74
2022/03/23 12:17:22;;;;;;;5.65;3.80;;;8.80;76.60;;;;;;6289992;28;20274;-74
2022/03/23 12:20:31;;;;;;;10.20;3.97;;;8.90;71.70;;;;;;6289281;28;20455;-74
2022/03/23 12:23:53;;;;;;;12.55;4.15;;;8.90;68.20;;;;;;6289452;28;20447;-74
2022/03/23 12:27:04;;;;;;;12.57;3.83;;;8.90;63.00;;;;;;6289401;28;20275;-75
2022/03/23 12:30:16;;;;;;;7.70;4.10;;;9.00;60.20;;;;;;6289758;28;20432;-74
2022/03/23 12:33:23;;;;;;;8.90;3.88;;;9.20;57.90;;;;;;6289297;28;20304;-75
2022/03/23 12:36:56;;;;;;;12.70;4.00;;;9.20;57.90;;;;;;6289299;28;20271;-76
2022/03/23 12:40:08;;;;;;;15.80;4.65;;;9.10;59.80;;;;;;6288565;28;20295;-75
2022/03/23 12:43:37;;;;;;;5.85;4.00;;;9.00;61.40;;;;;;6288435;28;20308;-75
2022/03/23 12:46:45;;;;;;;13.68;4.85;;;9.10;61.80;;;;;;6289339;28;20267;-75
2022/03/23 13:00:25;;;;;;;5.00;4.30;;;9.30;62.60;;;;;;6288360;28;20275;-75
2022/03/23 13:03:55;;;;;;;4.72;4.22;;;9.20;62.70;;;;;;6288700;28;20300;-75
2022/03/23 13:07:00;;;;;;;4.68;4.00;;;9.30;63.20;;;;;;6288176;28;20462;-76
2022/03/23 13:10:08;;;;;;;7.30;4.20;;;9.30;63.70;;;;;;6288859;28;20264;-76
2022/03/23 13:13:18;;;;;;;9.57;3.85;;;9.30;63.50;;;;;;6288168;28;20306;-75
2022/03/23 13:16:30;;;;;;;5.65;3.67;;;9.20;64.70;;;;;;6288262;28;20276;-75
2022/03/23 13:19:35;;;;;;;11.68;4.05;;;9.20;65.50;;;;;;6287875;28;20303;-75
2022/03/23 13:22:42;;;;;;;9.38;4.35;;;9.20;67.00;;;;;;6287850;28;20295;-75
2022/03/23 13:25:48;;;;;;;10.18;4.10;;;9.30;65.20;;;;;;6288030;28;20276;-76
2022/03/23 13:28:57;;;;;;;6.97;4.13;;;9.40;63.50;;;;;;6288081;28;20473;-75
2022/03/23 13:32:09;;;;;;;5.50;3.83;;;9.40;62.90;;;;;;6287464;28;20292;-75
2022/03/23 13:35:19;;;;;;;8.48;4.05;;;9.40;63.70;;;;;;6288289;28;20271;-74
2022/03/23 13:38:35;;;;;;;6.10;3.97;;;9.50;61.00;;;;;;6287860;28;20299;-75
2022/03/23 13:45:07;;;;;;;6.35;4.10;;;9.60;60.40;;;;;;6287435;28;20275;-75
2022/03/23 13:48:16;;;;;;;4.40;4.03;;;9.80;58.70;;;;;;6287857;28;20295;-75
2022/03/23 13:51:21;;;;;;;10.52;4.20;;;9.80;58.90;;;;;;6288138;28;20543;-75
2022/03/23 13:54:26;;;;;;;9.70;4.30;;;9.80;59.30;;;;;;6288057;28;20298;-75
2022/03/23 13:57:32;;;;;;;6.18;4.38;;;9.80;59.70;;;;;;6287699;28;20564;-76
2022/03/23 14:00:38;;;;;;;5.18;4.10;;;9.80;58.00;;;;;;6287399;28;20271;-75
2022/03/23 14:03:45;;;;;;;6.70;3.67;;;9.90;58.40;;;;;;6287158;28;20574;-76
2022/03/23 14:06:52;;;;;;;4.43;4.10;;;10.10;57.70;;;;;;6287659;28;20478;-75
2022/03/23 14:10:00;;;;;;;5.78;4.10;;;10.10;56.50;;;;;;6286174;28;20275;-76
2022/03/23 14:13:09;;;;;;;7.55;3.95;;;10.30;56.00;;;;;;6287096;28;20287;-76
2022/03/23 14:16:14;;;;;;;10.55;4.30;;;10.20;57.10;;;;;;6287135;28;20271;-76
2022/03/23 14:19:21;;;;;;;7.50;3.83;;;10.00;56.60;;;;;;6286845;28;20303;-74
2022/03/23 14:22:28;;;;;;;5.72;3.70;;;10.00;56.40;;;;;;6286705;28;20566;-75
2022/03/23 14:25:33;;;;;;;5.13;3.85;;;9.90;57.80;;;;;;6286743;28;20273;-75
2022/03/23 14:28:46;;;;;;;9.77;4.03;;;9.70;58.60;;;;;;6285747;28;20295;-76
2022/03/23 14:31:51;;;;;;;5.90;4.05;;;9.60;59.80;;;;;;6286927;28;20272;-75
2022/03/23 14:34:58;;;;;;;5.80;3.97;;;9.60;61.20;;;;;;6286189;28;20291;-75
2022/03/23 14:38:09;;;;;;;8.80;4.07;;;9.60;63.60;;;;;;6285949;28;20286;-75
2022/03/23 14:41:21;;;;;;;9.90;4.45;;;9.60;61.80;;;;;;6286264;28;20271;-75
2022/03/23 14:44:36;;;;;;;5.82;4.00;;;9.60;62.50;;;;;;6285894;28;20311;-75
2022/03/23 14:47:49;;;;;;;8.27;3.63;;;9.60;62.10;;;;;;6285977;28;20291;-74
2022/03/23 14:50:57;;;;;;;4.35;3.67;;;9.50;62.90;;;;;;6286558;28;20267;-74
2022/03/23 14:54:03;;;;;;;11.60;4.10;;;9.40;64.80;;;;;;6285653;28;20319;-75
2022/03/23 14:57:09;;;;;;;7.22;4.68;;;9.60;62.70;;;;;;6285657;28;20450;-75
2022/03/23 15:00:16;;;;;;;8.75;4.30;;;9.50;64.70;;;;;;6286257;28;20267;-75
2022/03/23 15:03:22;;;;;;;4.10;3.85;;;9.40;66.70;;;;;;6285432;28;20300;-76
2022/03/23 15:13:17;;;;;;;7.35;4.28;;;9.50;65.10;;;;;;6285234;28;20311;-75
2022/03/23 15:16:22;;;;;;;8.20;4.22;;;9.50;64.80;;;;;;6285459;28;20271;-75
2022/03/23 15:19:28;;;;;;;7.40;4.15;;;9.50;65.90;;;;;;6285532;28;20314;-75
2022/03/23 15:22:35;;;;;;;4.68;4.05;;;9.40;65.90;;;;;;6285733;28;20586;-75
2022/03/23 15:25:41;;;;;;;9.93;4.13;;;9.50;65.80;;;;;;6285949;28;20581;-75
2022/03/23 15:28:48;;;;;;;15.35;4.13;;;9.40;66.50;;;;;;6285177;28;20299;-75
2022/03/23 15:31:54;;;;;;;8.45;3.97;;;9.30;66.40;;;;;;6285728;28;20273;-75
2022/03/23 15:35:00;;;;;;;8.45;4.13;;;9.40;65.70;;;;;;6284840;28;20279;-75
2022/03/23 15:38:07;;;;;;;4.70;4.30;;;9.40;67.30;;;;;;6285676;28;20289;-75
2022/03/23 15:41:14;;;;;;;5.07;4.05;;;9.40;66.50;;;;;;6289905;28;20290;-76
2022/03/23 15:44:21;;;;;;;6.50;4.47;;;9.30;67.50;;;;;;6290257;28;20299;-76
2022/03/23 15:47:26;;;;;;;23.75;5.30;;;9.20;71.90;;;;;;6289864;28;20485;-76
2022/03/23 15:50:32;;;;;;;6.45;4.00;;;9.20;68.60;;;;;;6290809;28;20453;-75
2022/03/23 15:53:40;;;;;;;11.55;3.88;;;9.20;70.20;;;;;;6289753;28;20299;-75
2022/03/23 15:56:51;;;;;;;4.90;4.05;;;9.40;67.40;;;;;;6290926;28;20450;-76
2022/03/23 15:59:58;;;;;;;8.65;4.28;;;9.20;70.00;;;;;;6289929;28;20295;-76
2022/03/23 16:03:04;;;;;;;11.77;4.25;;;9.10;70.80;;;;;;6290237;28;20287;-76
2022/03/23 16:06:12;;;;;;;5.18;3.95;;;9.00;72.40;;;;;;6290270;28;20594;-76
2022/03/23 16:09:20;;;;;;;17.30;4.32;;;9.20;69.20;;;;;;6289936;28;20339;-76
2022/03/23 16:12:26;;;;;;;6.50;4.20;;;9.10;70.90;;;;;;6290168;28;20314;-76
2022/03/23 16:15:31;;;;;;;9.63;4.07;;;9.20;68.40;;;;;;6290042;28;20271;-75
2022/03/23 16:18:36;;;;;;;7.80;3.78;;;9.10;70.00;;;;;;6289433;28;20473;-77
2022/03/23 16:21:42;;;;;;;4.57;4.07;;;9.10;69.80;;;;;;6289913;28;20454;-76
2022/03/23 16:24:48;;;;;;;5.65;3.75;;;8.90;73.00;;;;;;6288713;28;20347;-75
2022/03/23 16:27:54;;;;;;;7.47;3.70;;;8.80;74.40;;;;;;6289304;28;20290;-76
2022/03/23 16:30:59;;;;;;;14.27;4.10;;;9.00;71.80;;;;;;6289730;28;20535;-75
2022/03/23 16:34:07;;;;;;;14.35;4.28;;;9.10;69.80;;;;;;6289218;28;20295;-76
2022/03/23 16:37:13;;;;;;;9.57;4.30;;;9.30;68.90;;;;;;6289053;28;20271;-76
2022/03/23 16:40:21;;;;;;;12.75;4.60;;;9.20;69.10;;;;;;6289414;28;20271;-74
2022/03/23 16:43:26;;;;;;;12.80;4.07;;;9.00;73.50;;;;;;6289247;28;20294;-75
2022/03/23 16:46:34;;;;;;;5.07;4.35;;;8.90;74.20;;;;;;6289234;28;20295;-75
2022/03/23 16:49:40;;;;;;;5.18;4.25;;;8.90;75.70;;;;;;6288443;28;20294;-74
2022/03/23 16:52:46;;;;;;;10.20;4.28;;;8.70;77.10;;;;;;6288532;28;20290;-74
2022/03/23 16:55:54;;;;;;;12.20;4.40;;;8.60;78.10;;;;;;6289261;28;20583;-74
2022/03/23 16:59:00;;;;;;;16.60;4.57;;;8.60;78.40;;;;;;6288974;28;20300;-75